Flight Track Log - Related Links

Times and Time Zones

All times are in EDT time to prevent confusion due to time zone crossing. See the SWA499 flight status page for this flight to view local times or setup timezone preferences in your user account.

Time Position Orientation Groundspeed Altitude Reporting Facility
EDT Latitude Longitude Course Direction KTS MPH feet Rate Location/Type
Tue 10:22:07 PM 37.6667 -122.3667 191° South 192 221 2,700  Level Northern Cal TRACON
Tue 10:24:32 PM 37.6372 -122.4986 254° West 268 308 10,000 2,957 Climbing Oakland Center
Tue 10:25:34 PM 37.5531 -122.5036 183° South 304 350 12,900 3,659 Climbing Oakland Center
Tue 10:26:35 PM 37.4406 -122.5178 186° South 334 384 17,500 3,590 Climbing Oakland Center
Tue 10:27:00 PM 37.1194 -122.5493 191° South  Level FlightAware Approximate
Tue 10:27:36 PM 37.3397 -122.5272 184° South 357 411 20,200  Level Oakland Center
Tue 10:28:37 PM 37.2350 -122.5386 185° South 375 432 23,500 3,073 Climbing Oakland Center
Tue 10:29:39 PM 37.1356 -122.5197 171° South 381 438 26,500 2,488 Climbing Oakland Center
Tue 10:30:40 PM 37.0478 -122.4439 145° Southeast 382 440 28,600 2,016 Climbing Oakland Center
Tue 10:31:41 PM 36.9536 -122.3614 145° Southeast 401 461 30,600 2,016 Climbing Oakland Center
Tue 10:32:42 PM 36.8556 -122.2758 145° Southeast 421 484 32,700 1,951 Climbing Oakland Center
Tue 10:33:44 PM 36.7594 -122.1903 144° Southeast 425 489 34,600 1,659 Climbing Oakland Center
Tue 10:34:45 PM 36.6617 -122.0992 143° Southeast 444 511 36,100 1,475 Climbing Oakland Center
Tue 10:35:46 PM 36.5619 -122.0103 144° Southeast 444 511 37,600 1,623 Climbing Oakland Center
Tue 10:36:47 PM 36.4414 -121.9067 145° Southeast 441 507 39,400 1,317 Climbing Oakland Center
Tue 10:37:49 PM 36.3408 -121.8206 145° Southeast 442 509 40,300 780 Climbing Oakland Center
Tue 10:38:50 PM 36.2369 -121.7350 146° Southeast 447 514 41,000 344 Climbing Oakland Center
Tue 10:39:51 PM 36.1364 -121.6497 146° Southeast 441 507 41,000  Level Oakland Center
Tue 10:40:52 PM 36.0378 -121.5644 145° Southeast 436 502 41,000  Level Oakland Center
Tue 10:41:54 PM 35.9392 -121.4786 145° Southeast 435 501 41,000  Level Oakland Center
Tue 10:43:07 PM 35.8319 -121.3603 138° Southeast 440 506 41,000  Level Oakland Center
Tue 10:44:09 PM 35.7589 -121.2419 127° Southeast 439 505 41,000  Level Oakland Center
Tue 10:45:10 PM 35.6842 -121.1239 128° Southeast 438 504 41,000  Level Oakland Center
Tue 10:46:11 PM 35.5956 -120.9800 127° Southeast 441 507 41,000  Level Oakland Center
Tue 10:47:12 PM 35.5211 -120.8608 127° Southeast 441 507 41,000  Level Oakland Center
Tue 10:48:14 PM 35.4442 -120.7408 128° Southeast 444 511 41,000  Level Oakland Center
Tue 10:49:15 PM 35.3683 -120.6239 128° Southeast 444 511 41,000  Level Oakland Center
Tue 10:50:16 PM 35.2917 -120.5047 128° Southeast 450 518 41,000  Level Oakland Center
Tue 10:51:18 PM 35.2133 -120.3767 127° Southeast 456 525 41,000  Level Oakland Center
Tue 10:52:19 PM 35.1278 -120.2422 128° Southeast 446 513 41,000  Level Oakland Center
Tue 10:53:20 PM 35.0514 -120.1231 128° Southeast 448 516 41,000  Level Oakland Center
Tue 10:54:21 PM 34.9747 -120.0050 128° Southeast 446 513 41,000  Level Oakland Center
Tue 10:55:22 PM 34.8989 -119.8872 128° Southeast 443 510 41,000  Level Oakland Center
Tue 10:56:24 PM 34.8225 -119.7703 128° Southeast 443 510 41,000  Level Oakland Center
Tue 10:57:25 PM 34.7458 -119.6511 128° Southeast 447 514 41,000  Level Oakland Center
Tue 10:58:26 PM 34.6692 -119.5333 128° Southeast 446 513 41,000  Level Oakland Center
Tue 10:59:53 PM 34.5489 -119.3533 129° Southeast 446 513 41,000  Level Los Angeles Center
Tue 11:00:54 PM 34.4703 -119.2350 129° Southeast 449 517 41,000  Level Los Angeles Center
Tue 11:01:56 PM 34.3917 -119.1186 129° Southeast 449 517 41,000 -97 Level Los Angeles Center
Tue 11:02:58 PM 34.3142 -119.0014 129° Southeast 447 514 40,800 -581 Descending Los Angeles Center
Tue 11:04:00 PM 34.2353 -118.8831 129° Southeast 450 518 39,800 -919 Descending Los Angeles Center
Tue 11:05:02 PM 34.1567 -118.7647 129° Southeast 452 520 38,900 -976 Descending Los Angeles Center
Tue 11:06:03 PM 34.0606 -118.6228 129° Southeast 455 524 37,800 -927 Descending Los Angeles Center
Tue 11:07:05 PM 33.9814 -118.5039 129° Southeast 454 522 37,000 -387 Descending Los Angeles Center
Tue 11:08:07 PM 33.8986 -118.3867 130° Southeast 455 524 37,000 -726 Level Los Angeles Center
Tue 11:09:09 PM 33.8025 -118.2731 135° Southeast 462 532 35,500 -1,171 Descending Los Angeles Center
Tue 11:10:10 PM 33.7189 -118.1542 130° Southeast 476 548 34,600 -2,098 Descending Los Angeles Center
Tue 11:11:12 PM 33.6319 -118.0461 134° Southeast 456 525 31,200 -2,710 Descending Los Angeles Center
Tue 11:12:14 PM 33.5444 -117.9369 134° Southeast 454 522 29,000 -2,032 Descending Los Angeles Center
Tue 11:13:16 PM 33.4553 -117.8247 134° Southeast 462 532 27,000 -2,536 Descending Los Angeles Center
Tue 11:13:51 PM 33.4000 -117.7500 132° Southeast 455 524 24,900 -3,095 Descending Southern California TRACON
Tue 11:14:51 PM 33.3167 -117.6333 131° Southeast 437 503 22,100 -2,800 Descending Southern California TRACON
Tue 11:15:51 PM 33.2333 -117.5500 140° Southeast 425 489 19,300 -2,714 Descending Southern California TRACON
Tue 11:16:57 PM 33.1167 -117.4500 144° Southeast 399 459 16,400 -2,550 Descending Southern California TRACON
Tue 11:17:51 PM 33.0500 -117.4000 148° Southeast 382 440 14,200 -2,386 Descending Southern California TRACON
Tue 11:18:25 PM 33.0017 -117.3619 147° Southeast 384 442 12,900 -1,705 Descending Los Angeles Center
Tue 11:19:26 PM 32.9225 -117.2961 145° Southeast 357 411 11,500 -1,268 Descending Los Angeles Center
Tue 11:20:28 PM 32.8664 -117.2506 146° Southeast 321 369 10,300 -1,935 Descending Los Angeles Center
Tue 11:21:30 PM 32.8003 -117.1558 130° Southeast 293 337 7,500 -2,274 Descending Los Angeles Center
Tue 11:22:32 PM 32.7794 -117.0617 105° East 293 337 5,600 -1,220 Descending Los Angeles Center
Tue 11:23:33 PM 32.7606 -116.9756 105° East 280 322 5,000 -293 Descending Los Angeles Center
Tue 11:24:35 PM 32.7253 -116.9333 135° Southeast 205 236 5,000 -629 Level Los Angeles Center
Tue 11:25:37 PM 32.6808 -116.9583 205° Southwest 190 219 3,700 -1,065 Descending Los Angeles Center
Tue 11:26:39 PM 32.6919 -117.0167 283° West 191 220 2,800 -884 Descending Los Angeles Center
Tue 11:27:46 PM 32.7000 -117.0833 278° West 156 180 1,800 -803 Descending Southern California TRACON
Tue 11:28:46 PM 32.7167 -117.1333 292° West 147 169 1,100 -692 Descending Southern California TRACON
Tue 11:29:56 PM 32.7286 -117.1686 292° West 137 158 300 -686 Descending Los Angeles Center
Tue 11:31:00 PM 32.7333 -117.1833 279° West  Level FlightAware Approximate
Tue 11:38:00 PM 32.7336 -117.1897 279° West  Level Estimated

Login

Don't have an account? Register now (free) for customized features, flight alerts, and more!